createdAt,value
2022-12-15T00:01:58.977Z,99994.84
2022-12-15T00:04:44.998Z,99984.88
2022-12-15T00:07:30.283Z,99987.97
2022-12-15T00:10:15.366Z,99970.66
2022-12-15T00:13:00.586Z,99961.78
2022-12-15T00:15:45.330Z,99962.34
2022-12-15T00:18:31.183Z,99973.97
2022-12-15T00:21:17.497Z,99989.00
2022-12-15T00:24:02.548Z,99987.97
2022-12-15T00:26:48.167Z,99999.91
2022-12-15T00:29:33.387Z,99994.59
2022-12-15T00:32:19.574Z,99989.22
2022-12-15T00:35:04.680Z,100002.19
2022-12-15T00:37:49.812Z,99995.19
2022-12-15T00:40:16.891Z,99993.78
2022-12-15T00:42:43.357Z,99993.19
2022-12-15T00:45:10.416Z,99998.41
2022-12-15T00:47:37.075Z,99992.31
2022-12-15T00:50:22.634Z,100001.06
2022-12-15T00:53:07.766Z,100012.13
2022-12-15T00:55:56.053Z,100000.56
2022-12-15T00:58:41.097Z,99998.34
2022-12-15T01:01:27.787Z,100000.38
2022-12-15T01:04:13.081Z,100005.81
2022-12-15T01:06:58.109Z,99997.34
2022-12-15T01:09:43.283Z,99998.47
2022-12-15T01:12:28.276Z,100001.66
2022-12-15T01:15:13.383Z,99993.16
2022-12-15T01:17:58.331Z,100001.53
2022-12-15T01:20:24.786Z,100005.28
2022-12-15T01:22:53.939Z,99997.06
2022-12-15T01:25:22.835Z,99985.97
2022-12-15T01:27:49.829Z,99987.00
2022-12-15T01:30:19.509Z,99978.09
2022-12-15T01:32:46.612Z,99976.06
2022-12-15T01:35:13.866Z,99988.34
2022-12-15T01:37:40.344Z,99986.72
2022-12-15T01:40:27.464Z,99989.78
2022-12-15T01:42:54.021Z,100001.28
2022-12-15T01:45:26.694Z,100014.47
2022-12-15T01:48:07.858Z,100006.06
2022-12-15T01:50:43.677Z,100008.53
2022-12-15T01:53:10.796Z,100003.47
2022-12-15T01:55:39.080Z,100003.81
2022-12-15T01:58:07.152Z,100008.94
2022-12-15T02:00:33.989Z,100019.63
2022-12-15T02:03:01.700Z,100007.56
2022-12-15T02:05:30.371Z,100013.22
2022-12-15T02:07:56.801Z,100007.88
2022-12-15T02:10:27.788Z,100007.09
2022-12-15T02:12:58.914Z,100008.47
2022-12-15T02:15:56.366Z,99997.31
2022-12-15T02:18:30.539Z,100005.81
2022-12-15T02:20:59.920Z,99998.72
2022-12-15T02:23:45.207Z,100002.06
2022-12-15T02:26:14.706Z,100007.03
2022-12-15T02:29:05.406Z,100004.31
2022-12-15T02:31:50.636Z,100000.19
2022-12-15T02:34:44.816Z,100007.47
2022-12-15T02:37:15.430Z,100002.91
2022-12-15T02:39:42.100Z,100005.00
2022-12-15T02:42:10.412Z,100007.72
2022-12-15T02:44:44.820Z,100027.63
2022-12-15T02:47:27.793Z,100023.22
2022-12-15T02:49:57.295Z,100033.31
2022-12-15T02:52:54.295Z,100038.41
2022-12-15T02:55:26.829Z,100037.72
2022-12-15T02:57:59.708Z,100029.97
2022-12-15T03:00:26.983Z,100037.97
2022-12-15T03:02:54.788Z,100040.28
2022-12-15T03:05:22.811Z,100036.09
2022-12-15T03:07:50.578Z,100054.47
2022-12-15T03:10:17.757Z,100055.53
2022-12-15T03:12:45.112Z,100053.16
2022-12-15T03:15:11.956Z,100056.53
2022-12-15T03:17:38.443Z,100052.84
2022-12-15T03:20:05.680Z,100051.78
2022-12-15T03:22:32.153Z,100054.59
2022-12-15T03:24:58.647Z,100044.03
2022-12-15T03:27:25.239Z,100040.91
2022-12-15T03:29:51.755Z,100041.59
2022-12-15T03:32:18.317Z,100042.13
2022-12-15T03:34:45.220Z,100051.44
2022-12-15T03:37:11.765Z,100044.66
2022-12-15T03:39:38.230Z,100045.81
2022-12-15T03:42:04.731Z,100044.84
2022-12-15T03:44:31.248Z,100054.75
2022-12-15T03:47:02.926Z,100046.06
2022-12-15T03:49:29.877Z,100061.19
2022-12-15T03:51:56.336Z,100062.25
2022-12-15T03:54:22.774Z,100067.94
2022-12-15T03:56:50.125Z,100074.25
2022-12-15T03:59:16.553Z,100063.44
2022-12-15T04:01:47.960Z,100055.09
2022-12-15T04:04:14.537Z,100071.06
2022-12-15T04:06:40.987Z,100067.69
2022-12-15T04:09:07.424Z,100065.03
2022-12-15T04:11:33.884Z,100063.34
2022-12-15T04:14:00.320Z,100057.47
2022-12-15T04:16:26.890Z,100059.94
2022-12-15T04:19:13.326Z,100066.19
2022-12-15T04:21:39.795Z,100074.63
2022-12-15T04:24:24.780Z,100073.94
2022-12-15T04:27:09.989Z,100076.63
2022-12-15T04:29:55.008Z,100073.94
2022-12-15T04:32:40.203Z,100080.44
2022-12-15T04:35:25.473Z,100076.72
2022-12-15T04:38:10.627Z,100071.53
2022-12-15T04:40:55.851Z,100077.91
2022-12-15T04:43:41.007Z,100074.78
2022-12-15T04:46:26.244Z,100080.97
2022-12-15T04:49:11.312Z,100076.97
2022-12-15T04:51:56.521Z,100074.75
2022-12-15T04:54:41.783Z,100076.03
2022-12-15T04:57:26.782Z,100081.47
2022-12-15T05:00:11.948Z,100077.63
2022-12-15T05:02:57.083Z,100082.19
2022-12-15T05:05:42.296Z,100084.44
2022-12-15T05:08:27.488Z,100086.38
2022-12-15T05:11:12.682Z,100073.59
2022-12-15T05:13:57.859Z,100068.47
2022-12-15T05:16:42.938Z,100067.88
2022-12-15T05:19:28.164Z,100087.94
2022-12-15T05:22:13.205Z,100077.97
2022-12-15T05:24:58.396Z,100084.19
2022-12-15T05:27:43.526Z,100085.22
2022-12-15T05:30:29.147Z,100095.19
2022-12-15T05:32:55.589Z,100102.72
2022-12-15T05:35:22.053Z,100103.44
2022-12-15T05:37:48.509Z,100106.97
2022-12-15T05:40:15.019Z,100105.56
2022-12-15T05:42:41.444Z,100099.66
2022-12-15T05:45:08.486Z,100116.00
2022-12-15T05:47:35.878Z,100113.38
2022-12-15T05:50:02.348Z,100120.78
2022-12-15T05:52:28.858Z,100124.03
2022-12-15T05:54:55.323Z,100133.00
2022-12-15T05:57:21.790Z,100129.63
2022-12-15T05:59:48.318Z,100138.88
2022-12-15T06:02:14.832Z,100137.38
2022-12-15T06:04:41.589Z,100139.75
2022-12-15T06:07:08.060Z,100139.75
2022-12-15T06:09:34.527Z,100136.31
2022-12-15T06:12:00.991Z,100151.44
2022-12-15T06:14:27.476Z,100149.53
2022-12-15T06:16:53.931Z,100151.59
2022-12-15T06:19:20.954Z,100153.72
2022-12-15T06:21:47.647Z,100161.22
2022-12-15T06:24:14.151Z,100162.78
2022-12-15T06:26:40.997Z,100165.25
2022-12-15T06:29:09.146Z,100166.78
2022-12-15T06:31:36.391Z,100170.50
2022-12-15T06:34:08.846Z,100173.97
2022-12-15T06:36:35.435Z,100172.88
2022-12-15T06:39:04.305Z,100178.81
2022-12-15T06:41:31.580Z,100174.34
2022-12-15T06:43:59.059Z,100175.34
2022-12-15T06:46:27.989Z,100183.66
2022-12-15T06:48:54.870Z,100189.47
2022-12-15T06:51:21.385Z,100186.25
2022-12-15T06:53:53.901Z,100192.09
2022-12-15T06:56:39.214Z,100180.34
2022-12-15T06:59:07.275Z,100184.25
2022-12-15T07:01:34.868Z,100192.69
2022-12-15T07:04:02.992Z,100188.63
2022-12-15T07:06:34.245Z,100190.28
2022-12-15T07:09:00.714Z,100191.81
2022-12-15T07:11:27.227Z,100203.25
2022-12-15T07:13:54.225Z,100199.13
2022-12-15T07:16:22.313Z,100205.19
2022-12-15T07:18:49.001Z,100210.50
2022-12-15T07:21:15.600Z,100203.06
2022-12-15T07:23:58.217Z,100212.22
2022-12-15T07:26:25.175Z,100216.44
2022-12-15T07:28:52.901Z,100212.94
2022-12-15T07:31:19.451Z,100224.28
2022-12-15T07:33:48.201Z,100229.63
2022-12-15T07:36:14.798Z,100238.63
2022-12-15T07:38:41.355Z,100246.28
2022-12-15T07:41:08.517Z,100243.97
2022-12-15T07:43:36.001Z,100240.47
2022-12-15T07:46:04.127Z,100254.91
2022-12-15T07:48:30.687Z,100258.91
2022-12-15T07:51:08.374Z,100268.81
2022-12-15T07:53:36.063Z,100266.75
2022-12-15T07:56:08.951Z,100267.97
2022-12-15T07:58:36.613Z,100270.28
2022-12-15T08:01:05.546Z,100278.03
2022-12-15T08:03:33.011Z,100282.00
2022-12-15T08:06:05.654Z,100277.72
2022-12-15T08:08:33.387Z,100296.59
2022-12-15T08:11:07.671Z,100291.84
2022-12-15T08:16:21.268Z,100295.34
2022-12-15T08:18:48.640Z,100283.09
2022-12-15T08:21:15.124Z,100287.91
2022-12-15T08:23:41.636Z,100295.28
2022-12-15T08:26:10.721Z,100302.00
2022-12-15T08:28:38.901Z,100309.97
2022-12-15T08:31:08.543Z,100293.94
2022-12-15T08:33:35.721Z,100304.44
2022-12-15T08:36:05.050Z,100301.28
2022-12-15T08:38:32.478Z,100309.25
2022-12-15T08:41:07.445Z,100311.28
2022-12-15T08:43:34.236Z,100312.53
2022-12-15T08:46:01.107Z,100309.69
2022-12-15T08:48:27.598Z,100307.13
2022-12-15T08:50:55.667Z,100298.69
2022-12-15T08:53:41.351Z,100295.75
2022-12-15T08:56:10.344Z,100301.63
2022-12-15T08:58:36.895Z,100317.59
2022-12-15T09:01:09.681Z,100327.53
2022-12-15T09:03:36.955Z,100332.06
2022-12-15T09:06:05.381Z,100335.34
2022-12-15T09:08:32.411Z,100329.03
2022-12-15T09:10:59.487Z,100339.81
2022-12-15T09:13:26.399Z,100332.00
2022-12-15T09:16:11.367Z,100334.06
2022-12-15T09:18:38.168Z,100317.53
2022-12-15T09:21:06.307Z,100332.63
2022-12-15T09:23:34.423Z,100327.84
2022-12-15T09:26:12.023Z,100325.16
2022-12-15T09:28:38.942Z,100320.03
2022-12-15T09:31:19.203Z,100329.16
2022-12-15T09:33:45.740Z,100321.88
2022-12-15T09:36:13.287Z,100328.66
2022-12-15T09:38:41.334Z,100333.25
2022-12-15T09:41:13.957Z,100346.16
2022-12-15T09:44:09.492Z,100355.66
2022-12-15T09:47:05.956Z,100351.44
2022-12-15T09:49:57.402Z,100350.47
2022-12-15T09:52:25.956Z,100359.81
2022-12-15T09:54:52.517Z,100357.88
2022-12-15T09:57:24.972Z,100357.75
2022-12-15T10:00:07.556Z,100361.03
2022-12-15T10:02:49.778Z,100349.88
2022-12-15T10:08:45.325Z,100357.44
2022-12-15T10:11:29.759Z,100357.25
2022-12-15T10:14:28.478Z,100358.91
2022-12-15T10:17:02.460Z,100352.84
2022-12-15T10:19:36.506Z,100353.69
2022-12-15T10:22:03.289Z,100351.91
2022-12-15T10:25:08.031Z,100360.38
2022-12-15T10:27:31.500Z,100364.19
2022-12-15T10:30:03.115Z,100357.69
2022-12-15T10:35:32.796Z,100359.88
2022-12-15T10:38:01.742Z,100356.34
2022-12-15T10:40:50.178Z,100351.84
2022-12-15T10:43:25.475Z,100351.31
2022-12-15T10:46:28.114Z,100360.44
2022-12-15T10:48:59.920Z,100356.84
2022-12-15T10:51:30.906Z,100355.13
2022-12-15T10:54:00.340Z,100357.09
2022-12-15T10:59:36.006Z,100361.56
2022-12-15T11:02:24.114Z,100361.53
2022-12-15T11:04:59.346Z,100358.91
2022-12-15T11:07:41.172Z,100366.28
2022-12-15T11:10:16.094Z,100370.03
2022-12-15T11:12:52.275Z,100367.44
2022-12-15T11:15:21.764Z,100359.72
2022-12-15T11:18:11.353Z,100364.88
2022-12-15T11:20:40.911Z,100364.03
2022-12-15T11:23:22.385Z,100353.09
2022-12-15T11:25:58.152Z,100359.16
2022-12-15T11:28:32.620Z,100365.38
2022-12-15T11:31:27.369Z,100364.13
2022-12-15T11:33:54.682Z,100369.06
2022-12-15T11:37:03.517Z,100360.16
2022-12-15T11:39:42.995Z,100363.09
2022-12-15T11:42:18.767Z,100356.00
2022-12-15T11:45:17.874Z,100366.69
2022-12-15T11:47:49.305Z,100364.53
2022-12-15T11:50:29.657Z,100367.34
2022-12-15T11:53:01.729Z,100371.88
2022-12-15T11:55:57.951Z,100372.31
2022-12-15T11:58:39.314Z,100374.03
2022-12-15T12:01:21.392Z,100371.28
2022-12-15T12:04:08.936Z,100377.94
2022-12-15T12:06:58.875Z,100374.91
2022-12-15T12:09:28.303Z,100378.81
2022-12-15T12:11:59.394Z,100377.94
2022-12-15T12:14:34.332Z,100378.06
2022-12-15T12:17:07.907Z,100379.69
2022-12-15T12:19:53.811Z,100387.66
2022-12-15T12:22:35.038Z,100383.06
2022-12-15T12:25:13.787Z,100393.06
2022-12-15T12:27:48.751Z,100387.25
2022-12-15T12:30:26.111Z,100379.41
2022-12-15T12:33:21.047Z,100384.50
2022-12-15T12:35:55.258Z,100378.97
2022-12-15T12:38:29.975Z,100381.84
2022-12-15T12:41:03.975Z,100379.16
2022-12-15T12:43:33.957Z,100386.00
2022-12-15T12:46:13.955Z,100378.47
2022-12-15T12:48:46.291Z,100383.47
2022-12-15T12:51:36.989Z,100384.91
2022-12-15T12:54:30.244Z,100383.06
2022-12-15T12:56:56.796Z,100387.00
2022-12-15T12:59:29.219Z,100386.22
2022-12-15T13:02:15.823Z,100369.91
2022-12-15T13:04:44.405Z,100377.69
2022-12-15T13:07:32.774Z,100377.81
2022-12-15T13:10:20.193Z,100376.81
2022-12-15T13:12:52.561Z,100372.81
2022-12-15T13:15:35.693Z,100376.19
2022-12-15T13:18:08.369Z,100379.59
2022-12-15T13:20:36.931Z,100380.22
2022-12-15T13:23:21.740Z,100389.25
2022-12-15T13:25:57.352Z,100389.97
2022-12-15T13:28:44.481Z,100390.09
2022-12-15T13:31:21.603Z,100392.38
2022-12-15T13:33:51.189Z,100387.97
2022-12-15T13:36:36.582Z,100395.94
2022-12-15T13:39:12.460Z,100399.09
2022-12-15T13:42:07.595Z,100393.16
2022-12-15T13:44:37.963Z,100392.47
2022-12-15T13:47:13.060Z,100392.25
2022-12-15T13:50:04.749Z,100396.13
2022-12-15T13:53:18.378Z,100400.13
2022-12-15T13:55:40.914Z,100408.53
2022-12-15T13:58:17.777Z,100400.78
2022-12-15T14:00:54.986Z,100402.38
2022-12-15T14:03:22.346Z,100398.22
2022-12-15T14:05:59.576Z,100408.03
2022-12-15T14:08:28.677Z,100406.13
2022-12-15T14:10:57.517Z,100403.19
2022-12-15T14:13:54.044Z,100411.44
2022-12-15T14:16:22.332Z,100415.47
2022-12-15T14:19:12.335Z,100411.25
2022-12-15T14:21:38.766Z,100411.97
2022-12-15T14:24:38.207Z,100403.75
2022-12-15T14:27:05.900Z,100410.41
2022-12-15T14:29:32.377Z,100409.50
2022-12-15T14:31:58.902Z,100410.41
2022-12-15T14:34:30.450Z,100419.56
2022-12-15T14:36:59.420Z,100421.88
2022-12-15T14:39:40.359Z,100428.28
2022-12-15T14:42:07.879Z,100426.44
2022-12-15T14:47:35.296Z,100426.69
2022-12-15T14:50:03.337Z,100424.31
2022-12-15T14:52:36.743Z,100426.81
2022-12-15T14:55:21.573Z,100437.25
2022-12-15T14:57:48.471Z,100437.13
2022-12-15T15:00:24.212Z,100441.78
2022-12-15T15:03:04.064Z,100361.59
2022-12-15T15:03:06.809Z,100357.91
2022-12-15T15:03:14.461Z,100426.59
2022-12-15T15:03:19.732Z,100441.16
2022-12-15T15:06:00.455Z,100435.00
2022-12-15T15:08:36.773Z,100434.00
2022-12-15T15:11:34.002Z,100436.50
2022-12-15T15:14:04.297Z,100436.41
2022-12-15T15:16:31.155Z,100436.66
2022-12-15T15:19:00.888Z,100435.94
2022-12-15T15:21:30.042Z,100440.84
2022-12-15T15:24:16.790Z,100444.41
2022-12-15T15:26:43.492Z,100435.84
2022-12-15T15:29:49.025Z,100446.25
2022-12-15T15:32:25.180Z,100445.94
2022-12-15T15:34:52.197Z,100440.69
2022-12-15T15:37:21.131Z,100447.78
2022-12-15T15:39:49.138Z,100440.06
2022-12-15T15:42:15.724Z,100449.88
2022-12-15T15:44:42.184Z,100448.00
2022-12-15T15:47:28.933Z,100448.72
2022-12-15T15:49:58.656Z,100450.22
2022-12-15T15:52:25.503Z,100452.91
2022-12-15T15:54:53.286Z,100455.75
2022-12-15T15:57:19.791Z,100457.94
2022-12-15T15:59:47.095Z,100458.56
2022-12-15T16:02:14.418Z,100458.22
2022-12-15T16:04:42.364Z,100455.06
2022-12-15T16:07:28.714Z,100452.91
2022-12-15T16:09:55.480Z,100456.94
2022-12-15T16:12:28.446Z,100459.91
2022-12-15T16:14:55.339Z,100462.56
2022-12-15T16:17:22.641Z,100448.19
2022-12-15T16:19:49.097Z,100451.31
2022-12-15T16:22:17.843Z,100446.47
2022-12-15T16:24:44.297Z,100449.31
2022-12-15T16:27:12.005Z,100455.31
2022-12-15T16:29:39.149Z,100455.97
2022-12-15T16:32:07.017Z,100460.56
2022-12-15T16:34:33.463Z,100464.66
2022-12-15T16:37:00.032Z,100470.41
2022-12-15T16:39:33.237Z,100468.59
2022-12-15T16:41:59.921Z,100468.19
2022-12-15T16:44:27.651Z,100463.22
2022-12-15T16:46:54.276Z,100474.44
2022-12-15T16:49:21.306Z,100477.78
2022-12-15T16:51:50.783Z,100486.19
2022-12-15T16:54:20.930Z,100483.88
2022-12-15T16:56:47.982Z,100476.81
2022-12-15T16:59:36.168Z,100499.50
2022-12-15T17:02:17.087Z,100501.25
2022-12-15T17:04:43.618Z,100495.56
2022-12-15T17:07:19.561Z,100497.03
2022-12-15T17:09:47.472Z,100496.41
2022-12-15T17:12:15.999Z,100513.53
2022-12-15T17:14:44.966Z,100503.91
2022-12-15T17:17:15.823Z,100508.72
2022-12-15T17:19:57.914Z,100511.06
2022-12-15T17:22:28.769Z,100519.34
2022-12-15T17:24:55.257Z,100511.06
2022-12-15T17:27:30.315Z,100526.00
2022-12-15T17:29:58.497Z,100521.16
2022-12-15T17:32:25.019Z,100525.66
2022-12-15T17:34:51.996Z,100528.53
2022-12-15T17:37:18.874Z,100530.06
2022-12-15T17:39:50.773Z,100531.31
2022-12-15T17:42:20.330Z,100532.72
2022-12-15T17:44:48.127Z,100531.25
2022-12-15T17:47:16.493Z,100535.31
2022-12-15T17:49:43.425Z,100541.44
2022-12-15T17:52:34.794Z,100544.91
2022-12-15T17:55:01.883Z,100552.22
2022-12-15T17:57:31.637Z,100554.16
2022-12-15T17:59:59.166Z,100551.56
2022-12-15T18:02:25.823Z,100560.06
2022-12-15T18:04:54.041Z,100561.69
2022-12-15T18:07:22.240Z,100568.63
2022-12-15T18:09:49.904Z,100570.06
2022-12-15T18:12:22.494Z,100565.88
2022-12-15T18:14:49.061Z,100570.91
2022-12-15T18:17:15.720Z,100562.22
2022-12-15T18:19:42.139Z,100569.94
2022-12-15T18:22:21.081Z,100574.34
2022-12-15T18:24:48.533Z,100573.50
2022-12-15T18:27:23.431Z,100582.97
2022-12-15T18:29:50.158Z,100578.34
2022-12-15T18:32:17.270Z,100580.16
2022-12-15T18:34:43.954Z,100571.88
2022-12-15T18:37:18.549Z,100576.91
2022-12-15T18:39:45.539Z,100583.94
2022-12-15T18:42:18.845Z,100583.50
2022-12-15T18:44:48.818Z,100582.56
2022-12-15T18:47:19.789Z,100593.34
2022-12-15T18:49:46.399Z,100600.94
2022-12-15T18:52:21.789Z,100608.75
2022-12-15T18:54:52.187Z,100603.00
2022-12-15T18:57:27.308Z,100610.47
2022-12-15T18:59:57.344Z,100614.03
2022-12-15T19:02:23.981Z,100625.91
2022-12-15T19:04:50.513Z,100616.22
2022-12-15T19:07:17.078Z,100623.09
2022-12-15T19:09:43.568Z,100617.72
2022-12-15T19:12:18.489Z,100622.47
2022-12-15T19:14:47.160Z,100622.22
2022-12-15T19:17:37.730Z,100633.53
2022-12-15T19:20:31.002Z,100634.09
2022-12-15T19:22:57.528Z,100632.75
2022-12-15T19:25:26.843Z,100639.38
2022-12-15T19:27:58.964Z,100643.72
2022-12-15T19:30:28.087Z,100640.75
2022-12-15T19:32:54.809Z,100650.41
2022-12-15T19:35:21.427Z,100651.03
2022-12-15T19:37:49.699Z,100658.66
2022-12-15T19:40:36.121Z,100649.94
2022-12-15T19:43:04.350Z,100658.13
2022-12-15T19:45:31.994Z,100667.56
2022-12-15T19:47:59.165Z,100669.97
2022-12-15T19:50:36.253Z,100662.91
2022-12-15T19:53:06.692Z,100666.72
2022-12-15T19:55:35.435Z,100666.03
2022-12-15T19:58:28.168Z,100662.38
2022-12-15T20:00:57.455Z,100665.78
2022-12-15T20:03:25.342Z,100670.22
2022-12-15T20:05:53.611Z,100680.25
2022-12-15T20:08:23.572Z,100677.34
2022-12-15T20:10:51.468Z,100677.09
2022-12-15T20:13:18.221Z,100685.41
2022-12-15T20:15:44.800Z,100672.66
2022-12-15T20:18:11.647Z,100679.09
2022-12-15T20:20:38.873Z,100681.75
2022-12-15T20:23:13.360Z,100683.78
2022-12-15T20:25:41.011Z,100692.03
2022-12-15T20:28:22.990Z,100693.25
2022-12-15T20:30:50.531Z,100684.47
2022-12-15T20:33:18.195Z,100691.72
2022-12-15T20:35:46.698Z,100695.56
2022-12-15T20:38:33.404Z,100693.72
2022-12-15T20:41:01.895Z,100699.16
2022-12-15T20:43:31.738Z,100698.53
2022-12-15T20:46:13.347Z,100708.78
2022-12-15T20:48:39.970Z,100698.41
2022-12-15T20:51:09.858Z,100704.72
2022-12-15T20:53:37.686Z,100702.53
2022-12-15T20:56:04.527Z,100702.25
2022-12-15T20:58:33.392Z,100700.66
2022-12-15T21:01:00.621Z,100699.47
2022-12-15T21:03:34.113Z,100701.72
2022-12-15T21:06:00.791Z,100701.19
2022-12-15T21:08:30.815Z,100707.22
2022-12-15T21:11:18.555Z,100715.88
2022-12-15T21:13:46.277Z,100708.69
2022-12-15T21:16:20.479Z,100711.69
2022-12-15T21:21:36.771Z,100717.50
2022-12-15T21:24:15.108Z,100716.50
2022-12-15T21:26:41.856Z,100727.47
2022-12-15T21:29:23.014Z,100727.00
2022-12-15T21:31:49.547Z,100730.75
2022-12-15T21:34:16.211Z,100735.84
2022-12-15T21:36:44.376Z,100744.19
2022-12-15T21:39:25.666Z,100753.78
2022-12-15T21:41:52.338Z,100755.03
2022-12-15T21:44:21.503Z,100747.22
2022-12-15T21:46:47.977Z,100749.47
2022-12-15T21:49:17.415Z,100746.53
2022-12-15T21:51:46.977Z,100754.88
2022-12-15T21:54:17.505Z,100755.56
2022-12-15T21:56:45.654Z,100753.09
2022-12-15T21:59:21.035Z,100750.50
2022-12-15T22:01:48.694Z,100757.59
2022-12-15T22:04:30.519Z,100761.38
2022-12-15T22:06:57.032Z,100761.72
2022-12-15T22:09:23.508Z,100767.91
2022-12-15T22:11:51.519Z,100764.56
2022-12-15T22:14:34.323Z,100761.94
2022-12-15T22:17:02.208Z,100755.44
2022-12-15T22:19:29.072Z,100761.25
2022-12-15T22:21:55.951Z,100766.78
2022-12-15T22:24:22.426Z,100760.84
2022-12-15T22:26:48.996Z,100777.88
2022-12-15T22:29:23.567Z,100767.56
2022-12-15T22:31:50.666Z,100767.72
2022-12-15T22:34:20.162Z,100761.81
2022-12-15T22:36:47.364Z,100766.38
2022-12-15T22:39:14.961Z,100770.53
2022-12-15T22:41:44.346Z,100769.63
2022-12-15T22:44:25.294Z,100759.41
2022-12-15T22:46:52.879Z,100756.38
2022-12-15T22:49:24.122Z,100763.31
2022-12-15T22:51:50.843Z,100761.97
2022-12-15T22:54:19.422Z,100758.22
2022-12-15T22:56:47.440Z,100755.94
2022-12-15T22:59:20.408Z,100750.16
2022-12-15T23:01:47.163Z,100752.28
2022-12-15T23:04:14.339Z,100747.31
2022-12-15T23:06:40.957Z,100749.94
2022-12-15T23:09:07.546Z,100754.59
2022-12-15T23:11:41.402Z,100756.69
2022-12-15T23:14:15.879Z,100760.63
2022-12-15T23:16:43.563Z,100758.44
2022-12-15T23:19:23.439Z,100757.50
2022-12-15T23:21:50.822Z,100773.41
2022-12-15T23:24:18.375Z,100771.16
2022-12-15T23:26:44.891Z,100764.34
2022-12-15T23:29:11.375Z,100772.69
2022-12-15T23:31:37.908Z,100773.97
2022-12-15T23:34:04.965Z,100770.97
2022-12-15T23:36:31.970Z,100785.19
2022-12-15T23:38:58.412Z,100790.34
2022-12-15T23:41:25.042Z,100797.22
2022-12-15T23:43:51.488Z,100793.28
2022-12-15T23:46:18.821Z,100798.09
2022-12-15T23:48:45.549Z,100796.88
2022-12-15T23:51:21.078Z,100800.16
2022-12-15T23:53:48.275Z,100816.53
2022-12-15T23:56:17.464Z,100817.03
2022-12-15T23:58:45.229Z,100811.28
